sensor_id;sensor_type;location;lat;lon;timestamp;P1;durP1;ratioP1;P2;durP2;ratioP2
2622;SDS011;1321;48.690;9.022;2023-04-05T00:01:12;5.63;;;5.00;;
2622;SDS011;1321;48.690;9.022;2023-04-05T00:03:41;5.20;;;4.90;;
2622;SDS011;1321;48.690;9.022;2023-04-05T00:06:09;5.55;;;5.25;;
2622;SDS011;1321;48.690;9.022;2023-04-05T00:08:40;5.60;;;5.07;;
2622;SDS011;1321;48.690;9.022;2023-04-05T00:11:09;5.40;;;5.10;;
2622;SDS011;1321;48.690;9.022;2023-04-05T00:13:37;5.80;;;5.40;;
2622;SDS011;1321;48.690;9.022;2023-04-05T00:16:05;5.70;;;5.20;;
2622;SDS011;1321;48.690;9.022;2023-04-05T00:18:34;6.13;;;5.72;;
2622;SDS011;1321;48.690;9.022;2023-04-05T00:21:04;5.73;;;5.33;;
2622;SDS011;1321;48.690;9.022;2023-04-05T00:23:32;5.95;;;5.45;;
2622;SDS011;1321;48.690;9.022;2023-04-05T00:26:05;6.93;;;6.35;;
2622;SDS011;1321;48.690;9.022;2023-04-05T00:28:33;6.03;;;5.60;;
2622;SDS011;1321;48.690;9.022;2023-04-05T00:31:02;5.93;;;5.43;;
2622;SDS011;1321;48.690;9.022;2023-04-05T00:33:30;5.53;;;5.13;;
2622;SDS011;1321;48.690;9.022;2023-04-05T00:36:06;5.68;;;5.38;;
2622;SDS011;1321;48.690;9.022;2023-04-05T00:38:36;5.97;;;5.57;;
2622;SDS011;1321;48.690;9.022;2023-04-05T00:41:07;5.85;;;5.38;;
2622;SDS011;1321;48.690;9.022;2023-04-05T00:43:35;6.18;;;5.78;;
2622;SDS011;1321;48.690;9.022;2023-04-05T00:46:03;6.35;;;5.80;;
2622;SDS011;1321;48.690;9.022;2023-04-05T00:48:32;9.52;;;6.85;;
2622;SDS011;1321;48.690;9.022;2023-04-05T00:51:01;6.43;;;5.90;;
2622;SDS011;1321;48.690;9.022;2023-04-05T00:53:29;5.60;;;5.10;;
2622;SDS011;1321;48.690;9.022;2023-04-05T00:55:58;6.57;;;6.15;;
2622;SDS011;1321;48.690;9.022;2023-04-05T00:58:29;6.72;;;6.13;;
2622;SDS011;1321;48.690;9.022;2023-04-05T01:00:59;5.95;;;5.45;;
2622;SDS011;1321;48.690;9.022;2023-04-05T01:03:33;6.50;;;6.10;;
2622;SDS011;1321;48.690;9.022;2023-04-05T01:06:09;6.15;;;5.65;;
2622;SDS011;1321;48.690;9.022;2023-04-05T01:08:46;5.95;;;5.45;;
2622;SDS011;1321;48.690;9.022;2023-04-05T01:11:21;6.68;;;6.18;;
2622;SDS011;1321;48.690;9.022;2023-04-05T01:13:57;6.88;;;6.28;;
2622;SDS011;1321;48.690;9.022;2023-04-05T01:16:26;6.72;;;6.00;;
2622;SDS011;1321;48.690;9.022;2023-04-05T01:18:54;6.65;;;6.05;;
2622;SDS011;1321;48.690;9.022;2023-04-05T01:21:41;6.97;;;6.22;;
2622;SDS011;1321;48.690;9.022;2023-04-05T01:24:50;6.35;;;5.95;;
2622;SDS011;1321;48.690;9.022;2023-04-05T01:27:42;6.65;;;6.10;;
2622;SDS011;1321;48.690;9.022;2023-04-05T01:30:25;7.13;;;6.47;;
2622;SDS011;1321;48.690;9.022;2023-04-05T01:32:59;9.80;;;9.00;;
2622;SDS011;1321;48.690;9.022;2023-04-05T01:35:38;10.32;;;8.65;;
2622;SDS011;1321;48.690;9.022;2023-04-05T01:38:11;9.90;;;9.00;;
2622;SDS011;1321;48.690;9.022;2023-04-05T01:40:46;9.77;;;8.85;;
2622;SDS011;1321;48.690;9.022;2023-04-05T01:43:15;8.85;;;8.05;;
2622;SDS011;1321;48.690;9.022;2023-04-05T01:45:45;9.90;;;8.52;;
2622;SDS011;1321;48.690;9.022;2023-04-05T01:48:13;8.07;;;7.43;;
2622;SDS011;1321;48.690;9.022;2023-04-05T01:50:42;8.65;;;7.95;;
2622;SDS011;1321;48.690;9.022;2023-04-05T01:53:10;8.30;;;7.60;;
2622;SDS011;1321;48.690;9.022;2023-04-05T01:55:38;9.00;;;8.03;;
2622;SDS011;1321;48.690;9.022;2023-04-05T01:58:06;9.40;;;8.48;;
2622;SDS011;1321;48.690;9.022;2023-04-05T02:00:34;8.60;;;7.80;;
2622;SDS011;1321;48.690;9.022;2023-04-05T02:03:03;7.00;;;6.50;;
2622;SDS011;1321;48.690;9.022;2023-04-05T02:05:32;6.55;;;6.15;;
2622;SDS011;1321;48.690;9.022;2023-04-05T02:08:00;6.70;;;6.30;;
2622;SDS011;1321;48.690;9.022;2023-04-05T02:10:28;7.28;;;6.75;;
2622;SDS011;1321;48.690;9.022;2023-04-05T02:12:58;6.50;;;5.72;;
2622;SDS011;1321;48.690;9.022;2023-04-05T02:15:26;7.20;;;6.68;;
2622;SDS011;1321;48.690;9.022;2023-04-05T02:17:55;9.13;;;6.72;;
2622;SDS011;1321;48.690;9.022;2023-04-05T02:20:28;6.78;;;6.25;;
2622;SDS011;1321;48.690;9.022;2023-04-05T02:22:58;5.60;;;5.15;;
2622;SDS011;1321;48.690;9.022;2023-04-05T02:25:27;7.50;;;6.80;;
2622;SDS011;1321;48.690;9.022;2023-04-05T02:27:55;7.13;;;6.63;;
2622;SDS011;1321;48.690;9.022;2023-04-05T02:30:23;9.43;;;7.30;;
2622;SDS011;1321;48.690;9.022;2023-04-05T02:32:54;7.60;;;6.85;;
2622;SDS011;1321;48.690;9.022;2023-04-05T02:35:22;6.90;;;6.38;;
2622;SDS011;1321;48.690;9.022;2023-04-05T02:37:52;7.03;;;6.53;;
2622;SDS011;1321;48.690;9.022;2023-04-05T02:40:22;6.75;;;6.25;;
2622;SDS011;1321;48.690;9.022;2023-04-05T02:42:50;6.90;;;6.30;;
2622;SDS011;1321;48.690;9.022;2023-04-05T02:45:18;6.80;;;6.20;;
2622;SDS011;1321;48.690;9.022;2023-04-05T02:47:46;7.90;;;7.20;;
2622;SDS011;1321;48.690;9.022;2023-04-05T02:50:15;7.20;;;6.50;;
2622;SDS011;1321;48.690;9.022;2023-04-05T02:52:45;7.35;;;6.75;;
2622;SDS011;1321;48.690;9.022;2023-04-05T02:55:15;7.72;;;7.05;;
2622;SDS011;1321;48.690;9.022;2023-04-05T02:57:44;8.10;;;7.40;;
2622;SDS011;1321;48.690;9.022;2023-04-05T03:00:13;6.53;;;6.03;;
2622;SDS011;1321;48.690;9.022;2023-04-05T03:02:41;6.60;;;6.10;;
2622;SDS011;1321;48.690;9.022;2023-04-05T03:05:10;6.90;;;6.47;;
2622;SDS011;1321;48.690;9.022;2023-04-05T03:07:39;7.63;;;6.70;;
2622;SDS011;1321;48.690;9.022;2023-04-05T03:10:08;7.18;;;6.47;;
2622;SDS011;1321;48.690;9.022;2023-04-05T03:12:37;8.35;;;7.60;;
2622;SDS011;1321;48.690;9.022;2023-04-05T03:15:06;7.00;;;6.40;;
2622;SDS011;1321;48.690;9.022;2023-04-05T03:17:35;7.38;;;6.88;;
2622;SDS011;1321;48.690;9.022;2023-04-05T03:20:03;7.72;;;7.10;;
2622;SDS011;1321;48.690;9.022;2023-04-05T03:22:34;6.70;;;6.20;;
2622;SDS011;1321;48.690;9.022;2023-04-05T03:25:02;6.50;;;6.10;;
2622;SDS011;1321;48.690;9.022;2023-04-05T03:27:31;6.85;;;6.25;;
2622;SDS011;1321;48.690;9.022;2023-04-05T03:30:01;7.88;;;7.20;;
2622;SDS011;1321;48.690;9.022;2023-04-05T03:32:29;8.40;;;7.32;;
2622;SDS011;1321;48.690;9.022;2023-04-05T03:34:57;7.88;;;7.10;;
2622;SDS011;1321;48.690;9.022;2023-04-05T03:37:25;7.85;;;7.18;;
2622;SDS011;1321;48.690;9.022;2023-04-05T03:39:54;11.88;;;10.68;;
2622;SDS011;1321;48.690;9.022;2023-04-05T03:42:23;12.00;;;11.00;;
2622;SDS011;1321;48.690;9.022;2023-04-05T03:44:51;13.88;;;12.13;;
2622;SDS011;1321;48.690;9.022;2023-04-05T03:47:21;11.05;;;10.05;;
2622;SDS011;1321;48.690;9.022;2023-04-05T03:49:49;9.40;;;8.55;;
2622;SDS011;1321;48.690;9.022;2023-04-05T03:52:19;9.02;;;8.23;;
2622;SDS011;1321;48.690;9.022;2023-04-05T03:54:47;9.98;;;8.20;;
2622;SDS011;1321;48.690;9.022;2023-04-05T03:57:15;9.20;;;8.30;;
2622;SDS011;1321;48.690;9.022;2023-04-05T03:59:46;10.23;;;9.30;;
2622;SDS011;1321;48.690;9.022;2023-04-05T04:02:14;10.85;;;9.23;;
2622;SDS011;1321;48.690;9.022;2023-04-05T04:04:44;8.95;;;8.20;;
2622;SDS011;1321;48.690;9.022;2023-04-05T04:07:12;13.32;;;9.25;;
2622;SDS011;1321;48.690;9.022;2023-04-05T04:09:41;9.60;;;8.70;;
2622;SDS011;1321;48.690;9.022;2023-04-05T04:12:09;8.48;;;7.78;;
2622;SDS011;1321;48.690;9.022;2023-04-05T04:14:38;8.98;;;8.20;;
2622;SDS011;1321;48.690;9.022;2023-04-05T04:17:06;8.48;;;7.88;;
2622;SDS011;1321;48.690;9.022;2023-04-05T04:19:34;8.63;;;7.75;;
2622;SDS011;1321;48.690;9.022;2023-04-05T04:22:03;7.53;;;7.03;;
2622;SDS011;1321;48.690;9.022;2023-04-05T04:24:35;8.13;;;7.32;;
2622;SDS011;1321;48.690;9.022;2023-04-05T04:27:03;8.23;;;7.43;;
2622;SDS011;1321;48.690;9.022;2023-04-05T04:29:34;7.60;;;7.10;;
2622;SDS011;1321;48.690;9.022;2023-04-05T04:32:04;8.35;;;7.78;;
2622;SDS011;1321;48.690;9.022;2023-04-05T04:34:33;8.13;;;7.35;;
2622;SDS011;1321;48.690;9.022;2023-04-05T04:37:04;7.85;;;7.35;;
2622;SDS011;1321;48.690;9.022;2023-04-05T04:39:32;9.00;;;8.10;;
2622;SDS011;1321;48.690;9.022;2023-04-05T04:42:04;8.35;;;7.63;;
2622;SDS011;1321;48.690;9.022;2023-04-05T04:44:36;8.07;;;7.47;;
2622;SDS011;1321;48.690;9.022;2023-04-05T04:47:04;8.85;;;7.95;;
2622;SDS011;1321;48.690;9.022;2023-04-05T04:49:40;8.02;;;7.40;;
2622;SDS011;1321;48.690;9.022;2023-04-05T04:52:09;8.07;;;7.47;;
2622;SDS011;1321;48.690;9.022;2023-04-05T04:54:37;8.20;;;7.55;;
2622;SDS011;1321;48.690;9.022;2023-04-05T04:57:07;8.00;;;7.40;;
2622;SDS011;1321;48.690;9.022;2023-04-05T04:59:35;8.32;;;7.63;;
2622;SDS011;1321;48.690;9.022;2023-04-05T05:02:03;8.75;;;8.13;;
2622;SDS011;1321;48.690;9.022;2023-04-05T05:04:33;8.63;;;8.13;;
2622;SDS011;1321;48.690;9.022;2023-04-05T05:07:01;8.90;;;8.07;;
2622;SDS011;1321;48.690;9.022;2023-04-05T05:09:31;9.32;;;8.50;;
2622;SDS011;1321;48.690;9.022;2023-04-05T05:11:59;7.78;;;7.25;;
2622;SDS011;1321;48.690;9.022;2023-04-05T05:14:27;8.02;;;7.43;;
2622;SDS011;1321;48.690;9.022;2023-04-05T05:16:55;9.15;;;8.50;;
2622;SDS011;1321;48.690;9.022;2023-04-05T05:19:24;8.75;;;8.05;;
2622;SDS011;1321;48.690;9.022;2023-04-05T05:21:52;8.80;;;8.10;;
2622;SDS011;1321;48.690;9.022;2023-04-05T05:24:20;8.52;;;7.80;;
2622;SDS011;1321;48.690;9.022;2023-04-05T05:26:50;8.85;;;8.05;;
2622;SDS011;1321;48.690;9.022;2023-04-05T05:29:18;9.10;;;8.30;;
2622;SDS011;1321;48.690;9.022;2023-04-05T05:31:46;9.07;;;8.25;;
2622;SDS011;1321;48.690;9.022;2023-04-05T05:34:14;8.82;;;8.13;;
2622;SDS011;1321;48.690;9.022;2023-04-05T05:36:43;9.02;;;8.32;;
2622;SDS011;1321;48.690;9.022;2023-04-05T05:39:11;9.85;;;9.10;;
2622;SDS011;1321;48.690;9.022;2023-04-05T05:41:39;10.45;;;9.57;;
2622;SDS011;1321;48.690;9.022;2023-04-05T05:44:08;9.80;;;8.93;;
2622;SDS011;1321;48.690;9.022;2023-04-05T05:46:36;9.55;;;8.75;;
2622;SDS011;1321;48.690;9.022;2023-04-05T05:49:05;9.52;;;8.82;;
2622;SDS011;1321;48.690;9.022;2023-04-05T05:51:33;10.20;;;9.30;;
2622;SDS011;1321;48.690;9.022;2023-04-05T05:54:02;10.20;;;9.30;;
2622;SDS011;1321;48.690;9.022;2023-04-05T05:56:30;9.20;;;8.40;;
2622;SDS011;1321;48.690;9.022;2023-04-05T05:58:58;11.02;;;9.95;;
2622;SDS011;1321;48.690;9.022;2023-04-05T06:01:28;10.23;;;9.38;;
2622;SDS011;1321;48.690;9.022;2023-04-05T06:03:59;11.63;;;10.43;;
2622;SDS011;1321;48.690;9.022;2023-04-05T06:06:27;10.50;;;9.80;;
2622;SDS011;1321;48.690;9.022;2023-04-05T06:08:56;12.23;;;11.00;;
2622;SDS011;1321;48.690;9.022;2023-04-05T06:11:24;12.25;;;11.35;;
2622;SDS011;1321;48.690;9.022;2023-04-05T06:13:52;12.82;;;11.73;;
2622;SDS011;1321;48.690;9.022;2023-04-05T06:16:21;12.48;;;11.23;;
2622;SDS011;1321;48.690;9.022;2023-04-05T06:18:50;10.95;;;10.05;;
2622;SDS011;1321;48.690;9.022;2023-04-05T06:21:20;10.77;;;9.60;;
2622;SDS011;1321;48.690;9.022;2023-04-05T06:23:49;11.80;;;10.60;;
2622;SDS011;1321;48.690;9.022;2023-04-05T06:26:17;11.65;;;10.32;;
2622;SDS011;1321;48.690;9.022;2023-04-05T06:28:47;11.03;;;9.90;;
2622;SDS011;1321;48.690;9.022;2023-04-05T06:31:15;11.90;;;10.90;;
2622;SDS011;1321;48.690;9.022;2023-04-05T06:33:43;14.05;;;10.95;;
2622;SDS011;1321;48.690;9.022;2023-04-05T06:36:13;11.63;;;10.57;;
2622;SDS011;1321;48.690;9.022;2023-04-05T06:38:41;11.85;;;10.95;;
2622;SDS011;1321;48.690;9.022;2023-04-05T06:41:09;11.67;;;10.67;;
2622;SDS011;1321;48.690;9.022;2023-04-05T06:43:37;11.90;;;10.67;;
2622;SDS011;1321;48.690;9.022;2023-04-05T06:46:05;11.17;;;10.30;;
2622;SDS011;1321;48.690;9.022;2023-04-05T06:48:36;10.63;;;9.83;;
2622;SDS011;1321;48.690;9.022;2023-04-05T06:51:05;11.60;;;10.47;;
2622;SDS011;1321;48.690;9.022;2023-04-05T06:53:34;12.30;;;10.63;;
2622;SDS011;1321;48.690;9.022;2023-04-05T06:56:03;11.87;;;10.87;;
2622;SDS011;1321;48.690;9.022;2023-04-05T06:58:31;10.32;;;9.43;;
2622;SDS011;1321;48.690;9.022;2023-04-05T07:00:59;9.73;;;9.03;;
2622;SDS011;1321;48.690;9.022;2023-04-05T07:03:27;9.47;;;8.87;;
2622;SDS011;1321;48.690;9.022;2023-04-05T07:05:57;10.13;;;9.33;;
2622;SDS011;1321;48.690;9.022;2023-04-05T07:08:27;9.27;;;8.57;;
2622;SDS011;1321;48.690;9.022;2023-04-05T07:10:58;8.40;;;7.80;;
2622;SDS011;1321;48.690;9.022;2023-04-05T07:13:26;9.80;;;9.20;;
2622;SDS011;1321;48.690;9.022;2023-04-05T07:15:58;11.87;;;9.10;;
2622;SDS011;1321;48.690;9.022;2023-04-05T07:18:27;9.97;;;9.27;;
2622;SDS011;1321;48.690;9.022;2023-04-05T07:20:56;8.77;;;7.90;;
2622;SDS011;1321;48.690;9.022;2023-04-05T07:23:29;9.43;;;8.73;;
2622;SDS011;1321;48.690;9.022;2023-04-05T07:25:59;9.07;;;8.47;;
2622;SDS011;1321;48.690;9.022;2023-04-05T07:28:30;8.53;;;7.73;;
2622;SDS011;1321;48.690;9.022;2023-04-05T07:31:01;7.87;;;7.27;;
2622;SDS011;1321;48.690;9.022;2023-04-05T07:33:29;8.67;;;8.17;;
2622;SDS011;1321;48.690;9.022;2023-04-05T07:35:57;8.27;;;7.67;;
2622;SDS011;1321;48.690;9.022;2023-04-05T07:38:25;7.67;;;7.17;;
2622;SDS011;1321;48.690;9.022;2023-04-05T07:40:54;7.80;;;7.23;;
2622;SDS011;1321;48.690;9.022;2023-04-05T07:43:24;7.87;;;7.30;;
2622;SDS011;1321;48.690;9.022;2023-04-05T07:45:59;7.67;;;7.17;;
2622;SDS011;1321;48.690;9.022;2023-04-05T07:48:27;8.40;;;7.70;;
2622;SDS011;1321;48.690;9.022;2023-04-05T07:50:56;8.00;;;7.60;;
2622;SDS011;1321;48.690;9.022;2023-04-05T07:53:30;7.30;;;6.90;;
2622;SDS011;1321;48.690;9.022;2023-04-05T07:56:01;7.27;;;6.90;;
2622;SDS011;1321;48.690;9.022;2023-04-05T07:58:32;7.50;;;7.00;;
2622;SDS011;1321;48.690;9.022;2023-04-05T08:01:00;8.77;;;8.03;;
2622;SDS011;1321;48.690;9.022;2023-04-05T08:03:29;7.43;;;6.83;;
2622;SDS011;1321;48.690;9.022;2023-04-05T08:06:07;7.57;;;7.17;;
2622;SDS011;1321;48.690;9.022;2023-04-05T08:08:36;7.50;;;7.10;;
2622;SDS011;1321;48.690;9.022;2023-04-05T08:11:04;6.93;;;6.53;;
2622;SDS011;1321;48.690;9.022;2023-04-05T08:13:34;7.70;;;7.10;;
2622;SDS011;1321;48.690;9.022;2023-04-05T08:16:06;8.27;;;7.67;;
2622;SDS011;1321;48.690;9.022;2023-04-05T08:18:34;8.13;;;7.53;;
2622;SDS011;1321;48.690;9.022;2023-04-05T08:21:03;8.57;;;7.90;;
2622;SDS011;1321;48.690;9.022;2023-04-05T08:23:31;7.90;;;7.10;;
2622;SDS011;1321;48.690;9.022;2023-04-05T08:25:59;6.83;;;6.43;;
2622;SDS011;1321;48.690;9.022;2023-04-05T08:28:28;6.37;;;6.07;;
2622;SDS011;1321;48.690;9.022;2023-04-05T08:30:57;7.90;;;7.50;;
2622;SDS011;1321;48.690;9.022;2023-04-05T08:33:25;8.17;;;7.57;;
2622;SDS011;1321;48.690;9.022;2023-04-05T08:35:56;6.63;;;6.30;;
2622;SDS011;1321;48.690;9.022;2023-04-05T08:38:24;9.00;;;8.30;;
2622;SDS011;1321;48.690;9.022;2023-04-05T08:40:52;7.20;;;6.70;;
2622;SDS011;1321;48.690;9.022;2023-04-05T08:43:22;8.90;;;8.07;;
2622;SDS011;1321;48.690;9.022;2023-04-05T08:45:55;6.50;;;6.20;;
2622;SDS011;1321;48.690;9.022;2023-04-05T08:48:25;6.60;;;6.20;;
2622;SDS011;1321;48.690;9.022;2023-04-05T08:50:58;8.47;;;7.67;;
2622;SDS011;1321;48.690;9.022;2023-04-05T08:53:26;6.70;;;6.23;;
2622;SDS011;1321;48.690;9.022;2023-04-05T08:55:55;7.17;;;6.67;;
2622;SDS011;1321;48.690;9.022;2023-04-05T08:58:24;6.23;;;5.93;;
2622;SDS011;1321;48.690;9.022;2023-04-05T09:00:54;6.70;;;6.30;;
2622;SDS011;1321;48.690;9.022;2023-04-05T09:03:25;7.30;;;6.70;;
2622;SDS011;1321;48.690;9.022;2023-04-05T09:05:57;8.03;;;7.40;;
2622;SDS011;1321;48.690;9.022;2023-04-05T09:08:26;6.97;;;6.47;;
2622;SDS011;1321;48.690;9.022;2023-04-05T09:10:54;22.23;;;14.20;;
2622;SDS011;1321;48.690;9.022;2023-04-05T09:13:22;36.23;;;21.47;;
2622;SDS011;1321;48.690;9.022;2023-04-05T09:15:50;14.53;;;12.40;;
2622;SDS011;1321;48.690;9.022;2023-04-05T09:18:19;8.47;;;7.87;;
2622;SDS011;1321;48.690;9.022;2023-04-05T09:20:56;7.83;;;7.33;;
2622;SDS011;1321;48.690;9.022;2023-04-05T09:23:30;7.00;;;6.50;;
2622;SDS011;1321;48.690;9.022;2023-04-05T09:26:00;7.23;;;6.63;;
2622;SDS011;1321;48.690;9.022;2023-04-05T09:28:39;5.90;;;5.60;;
2622;SDS011;1321;48.690;9.022;2023-04-05T09:31:09;6.30;;;5.80;;
2622;SDS011;1321;48.690;9.022;2023-04-05T09:33:56;6.50;;;5.90;;
2622;SDS011;1321;48.690;9.022;2023-04-05T09:36:26;6.97;;;6.57;;
2622;SDS011;1321;48.690;9.022;2023-04-05T09:39:03;6.30;;;5.90;;
2622;SDS011;1321;48.690;9.022;2023-04-05T09:41:33;5.70;;;5.50;;
2622;SDS011;1321;48.690;9.022;2023-04-05T09:44:02;6.60;;;6.27;;
2622;SDS011;1321;48.690;9.022;2023-04-05T09:46:31;7.20;;;6.70;;
2622;SDS011;1321;48.690;9.022;2023-04-05T09:49:00;6.50;;;6.20;;
2622;SDS011;1321;48.690;9.022;2023-04-05T09:51:34;6.20;;;5.77;;
2622;SDS011;1321;48.690;9.022;2023-04-05T09:54:03;6.70;;;6.20;;
2622;SDS011;1321;48.690;9.022;2023-04-05T09:56:33;6.23;;;5.83;;
2622;SDS011;1321;48.690;9.022;2023-04-05T09:59:05;6.50;;;6.10;;
2622;SDS011;1321;48.690;9.022;2023-04-05T10:01:36;7.07;;;6.57;;
2622;SDS011;1321;48.690;9.022;2023-04-05T10:04:07;6.40;;;6.00;;
2622;SDS011;1321;48.690;9.022;2023-04-05T10:06:37;7.83;;;7.07;;
2622;SDS011;1321;48.690;9.022;2023-04-05T10:09:07;7.07;;;6.57;;
2622;SDS011;1321;48.690;9.022;2023-04-05T10:11:40;7.27;;;6.77;;
2622;SDS011;1321;48.690;9.022;2023-04-05T10:14:10;7.30;;;6.67;;
2622;SDS011;1321;48.690;9.022;2023-04-05T10:16:41;6.23;;;5.83;;
2622;SDS011;1321;48.690;9.022;2023-04-05T10:19:19;6.17;;;5.77;;
2622;SDS011;1321;48.690;9.022;2023-04-05T10:21:54;6.97;;;6.47;;
2622;SDS011;1321;48.690;9.022;2023-04-05T10:24:30;6.07;;;5.77;;
2622;SDS011;1321;48.690;9.022;2023-04-05T10:27:03;5.77;;;5.47;;
2622;SDS011;1321;48.690;9.022;2023-04-05T10:29:37;7.80;;;7.07;;
2622;SDS011;1321;48.690;9.022;2023-04-05T10:32:12;6.30;;;5.90;;
2622;SDS011;1321;48.690;9.022;2023-04-05T10:34:50;5.90;;;5.60;;
2622;SDS011;1321;48.690;9.022;2023-04-05T10:37:27;6.20;;;5.90;;
2622;SDS011;1321;48.690;9.022;2023-04-05T10:40:13;5.90;;;5.60;;
2622;SDS011;1321;48.690;9.022;2023-04-05T10:42:46;6.47;;;5.90;;
2622;SDS011;1321;48.690;9.022;2023-04-05T10:45:16;6.43;;;6.03;;
2622;SDS011;1321;48.690;9.022;2023-04-05T10:47:48;5.83;;;5.63;;
2622;SDS011;1321;48.690;9.022;2023-04-05T10:50:21;7.30;;;6.30;;
2622;SDS011;1321;48.690;9.022;2023-04-05T10:52:52;6.77;;;6.27;;
2622;SDS011;1321;48.690;9.022;2023-04-05T10:55:20;5.80;;;5.43;;
2622;SDS011;1321;48.690;9.022;2023-04-05T10:57:49;5.50;;;5.20;;
2622;SDS011;1321;48.690;9.022;2023-04-05T11:00:18;6.07;;;5.73;;
2622;SDS011;1321;48.690;9.022;2023-04-05T11:02:47;5.53;;;5.03;;
2622;SDS011;1321;48.690;9.022;2023-04-05T11:05:29;5.40;;;5.10;;
2622;SDS011;1321;48.690;9.022;2023-04-05T11:08:01;6.10;;;5.60;;
2622;SDS011;1321;48.690;9.022;2023-04-05T11:10:32;5.27;;;5.00;;
2622;SDS011;1321;48.690;9.022;2023-04-05T11:13:06;5.80;;;5.50;;
2622;SDS011;1321;48.690;9.022;2023-04-05T11:15:36;6.40;;;5.80;;
2622;SDS011;1321;48.690;9.022;2023-04-05T11:18:08;6.00;;;5.70;;
2622;SDS011;1321;48.690;9.022;2023-04-05T11:20:41;6.50;;;6.10;;
2622;SDS011;1321;48.690;9.022;2023-04-05T11:23:12;5.93;;;5.53;;
2622;SDS011;1321;48.690;9.022;2023-04-05T11:25:45;5.63;;;5.33;;
2622;SDS011;1321;48.690;9.022;2023-04-05T11:28:24;6.13;;;5.72;;
2622;SDS011;1321;48.690;9.022;2023-04-05T11:30:57;5.93;;;5.53;;
2622;SDS011;1321;48.690;9.022;2023-04-05T11:33:55;5.60;;;5.20;;
2622;SDS011;1321;48.690;9.022;2023-04-05T11:36:36;6.63;;;6.13;;
2622;SDS011;1321;48.690;9.022;2023-04-05T11:39:26;9.07;;;8.17;;
2622;SDS011;1321;48.690;9.022;2023-04-05T11:41:58;6.67;;;6.37;;
2622;SDS011;1321;48.690;9.022;2023-04-05T11:44:28;6.80;;;6.40;;
2622;SDS011;1321;48.690;9.022;2023-04-05T11:47:05;6.43;;;5.97;;
2622;SDS011;1321;48.690;9.022;2023-04-05T11:49:33;6.13;;;5.83;;
2622;SDS011;1321;48.690;9.022;2023-04-05T11:52:08;6.77;;;6.27;;
2622;SDS011;1321;48.690;9.022;2023-04-05T11:54:39;6.83;;;6.53;;
2622;SDS011;1321;48.690;9.022;2023-04-05T11:57:12;6.27;;;6.00;;
2622;SDS011;1321;48.690;9.022;2023-04-05T11:59:42;29.60;;;16.30;;
2622;SDS011;1321;48.690;9.022;2023-04-05T12:02:11;7.27;;;6.63;;
2622;SDS011;1321;48.690;9.022;2023-04-05T12:04:39;7.50;;;5.90;;
2622;SDS011;1321;48.690;9.022;2023-04-05T12:07:08;7.27;;;6.77;;
2622;SDS011;1321;48.690;9.022;2023-04-05T12:10:01;6.50;;;6.03;;
2622;SDS011;1321;48.690;9.022;2023-04-05T12:12:36;5.80;;;5.50;;
2622;SDS011;1321;48.690;9.022;2023-04-05T12:15:06;6.50;;;6.20;;
2622;SDS011;1321;48.690;9.022;2023-04-05T12:20:23;6.57;;;6.10;;
2622;SDS011;1321;48.690;9.022;2023-04-05T12:22:53;6.30;;;6.00;;
2622;SDS011;1321;48.690;9.022;2023-04-05T12:25:23;7.20;;;6.70;;
2622;SDS011;1321;48.690;9.022;2023-04-05T12:27:52;7.03;;;6.53;;
2622;SDS011;1321;48.690;9.022;2023-04-05T12:30:21;7.20;;;6.70;;
2622;SDS011;1321;48.690;9.022;2023-04-05T12:32:51;7.30;;;6.80;;
2622;SDS011;1321;48.690;9.022;2023-04-05T12:35:21;7.03;;;6.73;;
2622;SDS011;1321;48.690;9.022;2023-04-05T12:37:52;6.90;;;6.50;;
2622;SDS011;1321;48.690;9.022;2023-04-05T12:40:25;7.60;;;7.07;;
2622;SDS011;1321;48.690;9.022;2023-04-05T12:42:59;7.43;;;7.00;;
2622;SDS011;1321;48.690;9.022;2023-04-05T12:45:28;7.00;;;6.50;;
2622;SDS011;1321;48.690;9.022;2023-04-05T12:48:07;6.93;;;6.47;;
2622;SDS011;1321;48.690;9.022;2023-04-05T12:50:40;7.80;;;7.20;;
2622;SDS011;1321;48.690;9.022;2023-04-05T12:53:14;7.30;;;6.60;;
2622;SDS011;1321;48.690;9.022;2023-04-05T12:55:50;7.47;;;6.97;;
2622;SDS011;1321;48.690;9.022;2023-04-05T12:58:20;7.00;;;6.60;;
2622;SDS011;1321;48.690;9.022;2023-04-05T13:00:50;7.37;;;6.90;;
2622;SDS011;1321;48.690;9.022;2023-04-05T13:03:19;8.00;;;7.43;;
2622;SDS011;1321;48.690;9.022;2023-04-05T13:05:49;6.73;;;6.27;;
2622;SDS011;1321;48.690;9.022;2023-04-05T13:08:17;6.63;;;6.20;;
2622;SDS011;1321;48.690;9.022;2023-04-05T13:10:46;7.20;;;6.70;;
2622;SDS011;1321;48.690;9.022;2023-04-05T13:13:17;6.50;;;6.00;;
2622;SDS011;1321;48.690;9.022;2023-04-05T13:15:46;7.03;;;6.57;;
2622;SDS011;1321;48.690;9.022;2023-04-05T13:18:17;7.20;;;6.60;;
2622;SDS011;1321;48.690;9.022;2023-04-05T13:20:46;6.47;;;5.97;;
2622;SDS011;1321;48.690;9.022;2023-04-05T13:23:14;7.13;;;6.73;;
2622;SDS011;1321;48.690;9.022;2023-04-05T13:25:42;5.80;;;5.47;;
2622;SDS011;1321;48.690;9.022;2023-04-05T13:28:11;6.60;;;6.20;;
2622;SDS011;1321;48.690;9.022;2023-04-05T13:30:42;6.20;;;5.80;;
2622;SDS011;1321;48.690;9.022;2023-04-05T13:33:11;6.80;;;6.30;;
2622;SDS011;1321;48.690;9.022;2023-04-05T13:35:39;6.63;;;6.13;;
2622;SDS011;1321;48.690;9.022;2023-04-05T13:38:08;7.03;;;6.50;;
2622;SDS011;1321;48.690;9.022;2023-04-05T13:40:36;6.27;;;5.90;;
2622;SDS011;1321;48.690;9.022;2023-04-05T13:43:04;6.00;;;5.70;;
2622;SDS011;1321;48.690;9.022;2023-04-05T13:45:32;7.63;;;7.13;;
2622;SDS011;1321;48.690;9.022;2023-04-05T13:48:04;6.90;;;6.40;;
2622;SDS011;1321;48.690;9.022;2023-04-05T13:50:33;7.53;;;7.03;;
2622;SDS011;1321;48.690;9.022;2023-04-05T13:53:01;6.60;;;6.20;;
2622;SDS011;1321;48.690;9.022;2023-04-05T13:55:29;7.47;;;6.80;;
2622;SDS011;1321;48.690;9.022;2023-04-05T13:57:57;6.13;;;5.83;;
2622;SDS011;1321;48.690;9.022;2023-04-05T14:00:26;7.13;;;6.50;;
2622;SDS011;1321;48.690;9.022;2023-04-05T14:02:54;6.60;;;6.30;;
2622;SDS011;1321;48.690;9.022;2023-04-05T14:05:23;7.97;;;7.37;;
2622;SDS011;1321;48.690;9.022;2023-04-05T14:07:52;7.80;;;7.40;;
2622;SDS011;1321;48.690;9.022;2023-04-05T14:10:20;8.83;;;8.00;;
2622;SDS011;1321;48.690;9.022;2023-04-05T14:12:49;7.10;;;6.60;;
2622;SDS011;1321;48.690;9.022;2023-04-05T14:15:17;6.20;;;5.87;;
2622;SDS011;1321;48.690;9.022;2023-04-05T14:17:46;7.80;;;7.23;;
2622;SDS011;1321;48.690;9.022;2023-04-05T14:20:14;7.80;;;7.17;;
2622;SDS011;1321;48.690;9.022;2023-04-05T14:22:44;7.50;;;6.90;;
2622;SDS011;1321;48.690;9.022;2023-04-05T14:25:12;7.10;;;6.60;;
2622;SDS011;1321;48.690;9.022;2023-04-05T14:27:40;7.30;;;6.57;;
2622;SDS011;1321;48.690;9.022;2023-04-05T14:30:09;7.35;;;6.88;;
2622;SDS011;1321;48.690;9.022;2023-04-05T14:32:38;7.83;;;7.40;;
2622;SDS011;1321;48.690;9.022;2023-04-05T14:35:07;7.77;;;7.17;;
2622;SDS011;1321;48.690;9.022;2023-04-05T14:37:36;7.40;;;6.80;;
2622;SDS011;1321;48.690;9.022;2023-04-05T14:40:06;7.37;;;6.97;;
2622;SDS011;1321;48.690;9.022;2023-04-05T14:42:35;8.40;;;7.80;;
2622;SDS011;1321;48.690;9.022;2023-04-05T14:45:14;7.50;;;7.00;;
2622;SDS011;1321;48.690;9.022;2023-04-05T14:47:43;7.80;;;7.20;;
2622;SDS011;1321;48.690;9.022;2023-04-05T14:50:12;8.13;;;7.40;;
2622;SDS011;1321;48.690;9.022;2023-04-05T14:52:40;7.60;;;6.90;;
2622;SDS011;1321;48.690;9.022;2023-04-05T14:55:10;7.07;;;6.67;;
2622;SDS011;1321;48.690;9.022;2023-04-05T14:57:38;7.03;;;6.53;;
2622;SDS011;1321;48.690;9.022;2023-04-05T15:00:08;7.53;;;7.00;;
2622;SDS011;1321;48.690;9.022;2023-04-05T15:02:37;7.60;;;7.00;;
2622;SDS011;1321;48.690;9.022;2023-04-05T15:05:06;7.37;;;6.87;;
2622;SDS011;1321;48.690;9.022;2023-04-05T15:07:35;7.60;;;7.20;;
2622;SDS011;1321;48.690;9.022;2023-04-05T15:10:03;7.07;;;6.63;;
2622;SDS011;1321;48.690;9.022;2023-04-05T15:12:34;8.63;;;7.97;;
2622;SDS011;1321;48.690;9.022;2023-04-05T15:15:02;7.10;;;6.70;;
2622;SDS011;1321;48.690;9.022;2023-04-05T15:17:31;11.13;;;6.90;;
2622;SDS011;1321;48.690;9.022;2023-04-05T15:20:00;7.07;;;6.57;;
2622;SDS011;1321;48.690;9.022;2023-04-05T15:22:28;7.20;;;6.80;;
2622;SDS011;1321;48.690;9.022;2023-04-05T15:24:56;6.77;;;6.27;;
2622;SDS011;1321;48.690;9.022;2023-04-05T15:27:25;6.70;;;6.30;;
2622;SDS011;1321;48.690;9.022;2023-04-05T15:29:54;6.90;;;6.37;;
2622;SDS011;1321;48.690;9.022;2023-04-05T15:32:23;6.27;;;5.97;;
2622;SDS011;1321;48.690;9.022;2023-04-05T15:34:51;5.67;;;5.47;;